createdAt,value
2023-02-27T00:00:27.762Z,74.55
2023-02-27T00:10:27.830Z,72.14
2023-02-27T00:20:28.058Z,71.20
2023-02-27T00:30:28.426Z,74.52
2023-02-27T00:40:28.371Z,76.12
2023-02-27T00:50:28.653Z,76.02
2023-02-27T01:00:28.958Z,76.54
2023-02-27T01:10:29.025Z,77.24
2023-02-27T01:20:29.298Z,77.94
2023-02-27T01:30:29.440Z,77.94
2023-02-27T01:40:29.464Z,79.03
2023-02-27T01:50:29.790Z,79.44
2023-02-27T02:00:29.825Z,78.19
2023-02-27T02:10:30.147Z,77.94
2023-02-27T02:20:30.183Z,77.42
2023-02-27T02:30:30.613Z,77.45
2023-02-27T02:40:30.718Z,77.73
2023-02-27T02:50:30.884Z,79.80
2023-02-27T03:00:30.916Z,81.41
2023-02-27T03:10:31.248Z,82.60
2023-02-27T03:20:31.276Z,80.99
2023-02-27T03:30:31.646Z,78.39
2023-02-27T03:40:33.861Z,79.21
2023-02-27T03:50:32.090Z,82.07
2023-02-27T04:00:32.239Z,81.55
2023-02-27T04:10:32.388Z,81.55
2023-02-27T04:20:32.421Z,81.83
2023-02-27T04:30:32.740Z,82.21
2023-02-27T04:40:32.777Z,81.69
2023-02-27T04:50:33.101Z,82.14
2023-02-27T05:00:33.138Z,82.98
2023-02-27T05:10:33.509Z,81.34
2023-02-27T05:20:33.560Z,82.28
2023-02-27T05:30:36.906Z,81.79
2023-02-27T05:40:33.942Z,81.90
2023-02-27T05:50:34.211Z,81.48
2023-02-27T06:00:34.260Z,81.47
2023-02-27T06:10:34.575Z,81.76
2023-02-27T06:20:34.602Z,85.49
2023-02-27T06:30:34.865Z,79.52
2023-02-27T06:40:35.006Z,81.12
2023-02-27T06:50:35.256Z,81.09
2023-02-27T07:00:35.308Z,80.67
2023-02-27T07:10:35.681Z,80.25
2023-02-27T07:20:35.738Z,78.39
2023-02-27T07:30:36.055Z,76.12
2023-02-27T07:40:36.085Z,72.67
2023-02-27T07:50:36.452Z,72.60
2023-02-27T08:00:36.483Z,71.94
2023-02-27T08:10:36.800Z,69.58
2023-02-27T08:20:36.837Z,69.37
2023-02-27T08:30:39.224Z,68.77
2023-02-27T08:40:37.276Z,68.01
2023-02-27T08:50:37.728Z,77.10
2023-02-27T09:00:37.601Z,58.83
2023-02-27T09:10:37.917Z,65.14
2023-02-27T09:20:37.944Z,65.95
2023-02-27T09:30:38.287Z,61.99
2023-02-27T09:40:38.315Z,62.09
2023-02-27T09:50:38.683Z,60.71
2023-02-27T10:00:38.727Z,60.92
2023-02-27T10:10:39.042Z,60.14
2023-02-27T10:20:39.074Z,61.13
2023-02-27T10:30:39.490Z,62.92
2023-02-27T10:40:39.537Z,61.19
2023-02-27T10:50:39.873Z,62.02
2023-02-27T11:00:39.909Z,59.33
2023-02-27T11:10:40.243Z,59.71
2023-02-27T11:20:40.269Z,58.75
2023-02-27T11:30:40.613Z,59.87
2023-02-27T11:40:40.644Z,62.33
2023-02-27T11:50:40.980Z,61.03
2023-02-27T12:00:41.018Z,61.05
2023-02-27T12:10:41.359Z,61.40
2023-02-27T12:20:41.398Z,60.53
2023-02-27T12:30:41.720Z,62.23
2023-02-27T12:40:41.755Z,61.78
2023-02-27T12:50:42.092Z,61.88
2023-02-27T13:00:42.224Z,63.37
2023-02-27T13:10:42.388Z,64.17
2023-02-27T13:20:42.410Z,64.20
2023-02-27T13:30:42.750Z,65.86
2023-02-27T13:40:42.784Z,66.33
2023-02-27T13:50:43.096Z,68.82
2023-02-27T14:00:43.135Z,69.45
2023-02-27T14:10:43.472Z,67.89
2023-02-27T14:20:43.506Z,68.30
2023-02-27T14:30:44.809Z,70.13
2023-02-27T14:40:43.908Z,70.20
2023-02-27T14:50:44.214Z,70.83
2023-02-27T15:00:44.248Z,69.43
2023-02-27T15:10:44.594Z,68.99
2023-02-27T15:20:44.639Z,70.58
2023-02-27T15:30:44.955Z,70.72
2023-02-27T15:40:45.115Z,70.95
2023-02-27T15:50:45.219Z,69.81
2023-02-27T16:00:45.362Z,70.36
2023-02-27T16:10:45.482Z,70.50
2023-02-27T16:20:45.675Z,70.19
2023-02-27T16:30:47.737Z,69.81
2023-02-27T16:40:46.017Z,70.22
2023-02-27T16:50:47.160Z,72.02
2023-02-27T17:00:46.634Z,74.04
2023-02-27T17:10:46.599Z,75.12
2023-02-27T17:20:46.881Z,76.06
2023-02-27T17:30:47.025Z,75.26
2023-02-27T17:40:47.133Z,75.57
2023-02-27T17:50:47.392Z,75.50
2023-02-27T18:00:47.822Z,76.02
2023-02-27T18:10:47.816Z,75.08
2023-02-27T18:20:48.093Z,74.14
2023-02-27T18:30:48.052Z,73.96
2023-02-27T18:40:48.356Z,73.34
2023-02-27T18:50:49.660Z,73.24
2023-02-27T19:00:54.458Z,74.18
2023-02-27T19:10:48.620Z,73.34
2023-02-27T19:20:49.215Z,73.86
2023-02-27T19:30:49.235Z,75.43
2023-02-27T19:40:49.619Z,73.86
2023-02-27T19:50:49.626Z,73.65
2023-02-27T20:00:49.958Z,72.81
2023-02-27T20:10:50.003Z,73.55
2023-02-27T20:20:50.267Z,72.22
2023-02-27T20:30:50.479Z,72.96
2023-02-27T20:40:50.719Z,71.59
2023-02-27T20:50:50.809Z,71.67
2023-02-27T21:00:51.148Z,71.70
2023-02-27T21:10:50.909Z,72.64
2023-02-27T21:20:53.293Z,71.28
2023-02-27T21:30:51.270Z,71.49
2023-02-27T21:40:51.409Z,72.53
2023-02-27T21:50:51.438Z,72.36
2023-02-27T22:00:51.769Z,72.25
2023-02-27T22:10:51.805Z,73.09
2023-02-27T22:20:52.132Z,71.80
2023-02-27T22:30:52.226Z,71.59
2023-02-27T22:40:52.299Z,71.94
2023-02-27T22:50:52.536Z,71.94
2023-02-27T23:00:52.878Z,72.36
2023-02-27T23:10:52.911Z,73.37
2023-02-27T23:20:53.267Z,72.02
2023-02-27T23:30:53.283Z,72.02
2023-02-27T23:40:53.610Z,71.52
2023-02-27T23:50:53.638Z,72.78
